createdAt,value
2022-09-06T00:01:53.648Z,2.58
2022-09-06T00:04:20.253Z,3.72
2022-09-06T00:06:46.883Z,3.13
2022-09-06T00:09:13.434Z,3.13
2022-09-06T00:11:39.982Z,2.72
2022-09-06T00:14:06.601Z,3.40
2022-09-06T00:16:33.248Z,4.03
2022-09-06T00:18:59.832Z,2.72
2022-09-06T00:21:29.837Z,4.18
2022-09-06T00:23:56.935Z,2.92
2022-09-06T00:26:24.139Z,2.53
2022-09-06T00:28:50.902Z,3.03
2022-09-06T00:31:23.959Z,2.50
2022-09-06T00:33:50.911Z,2.90
2022-09-06T00:36:18.631Z,2.88
2022-09-06T00:38:45.714Z,3.20
2022-09-06T00:41:15.862Z,2.65
2022-09-06T00:43:43.074Z,2.88
2022-09-06T00:46:14.565Z,2.80
2022-09-06T00:48:42.545Z,3.65
2022-09-06T00:51:12.010Z,2.60
2022-09-06T00:53:39.444Z,6.53
2022-09-06T00:56:06.344Z,3.15
2022-09-06T00:58:33.340Z,3.42
2022-09-06T01:01:00.082Z,3.38
2022-09-06T01:03:27.413Z,3.25
2022-09-06T01:06:06.160Z,3.22
2022-09-06T01:09:02.772Z,2.40
2022-09-06T01:11:49.706Z,2.67
2022-09-06T01:14:22.181Z,2.90
2022-09-06T01:16:57.806Z,3.38
2022-09-06T01:20:09.312Z,4.90
2022-09-06T01:22:53.897Z,2.60
2022-09-06T01:25:30.391Z,2.35
2022-09-06T01:28:16.625Z,3.03
2022-09-06T01:30:50.783Z,3.13
2022-09-06T01:33:27.008Z,2.42
2022-09-06T01:35:58.256Z,2.60
2022-09-06T01:38:25.458Z,3.13
2022-09-06T01:40:52.170Z,2.40
2022-09-06T01:43:29.127Z,2.22
2022-09-06T01:46:34.167Z,1.98
2022-09-06T01:49:10.608Z,3.70
2022-09-06T01:51:57.400Z,2.75
2022-09-06T01:54:50.911Z,2.50
2022-09-06T01:57:43.128Z,3.35
2022-09-06T02:00:18.897Z,2.42
2022-09-06T02:03:21.437Z,2.00
2022-09-06T02:05:52.817Z,2.22
2022-09-06T02:08:31.451Z,3.45
2022-09-06T02:11:04.610Z,3.40
2022-09-06T02:13:36.948Z,1.85
2022-09-06T02:16:06.173Z,2.95
2022-09-06T02:18:52.126Z,4.72
2022-09-06T02:21:25.607Z,3.08
2022-09-06T02:23:55.554Z,3.33
2022-09-06T02:26:25.515Z,3.40
2022-09-06T02:28:52.261Z,1.77
2022-09-06T02:31:29.058Z,4.18
2022-09-06T02:33:56.267Z,1.60
2022-09-06T02:36:23.389Z,2.15
2022-09-06T02:38:50.462Z,3.05
2022-09-06T02:41:21.026Z,1.60
2022-09-06T02:43:47.558Z,2.00
2022-09-06T02:46:14.353Z,2.45
2022-09-06T02:48:41.015Z,2.00
2022-09-06T02:51:09.147Z,3.80
2022-09-06T02:53:36.413Z,1.65
2022-09-06T02:56:03.572Z,3.03
2022-09-06T02:58:30.132Z,1.65
2022-09-06T03:00:56.763Z,1.73
2022-09-06T03:03:24.824Z,1.70
2022-09-06T03:05:52.947Z,1.52
2022-09-06T03:08:21.202Z,3.00
2022-09-06T03:10:56.056Z,2.20
2022-09-06T03:13:24.167Z,1.80
2022-09-06T03:15:55.935Z,2.65
2022-09-06T03:18:24.309Z,2.47
2022-09-06T03:20:51.867Z,2.03
2022-09-06T03:23:24.160Z,1.33
2022-09-06T03:25:51.023Z,1.48
2022-09-06T03:28:18.326Z,1.45
2022-09-06T03:30:46.365Z,1.45
2022-09-06T03:33:13.038Z,1.25
2022-09-06T03:35:40.034Z,2.33
2022-09-06T03:38:06.594Z,1.83
2022-09-06T03:40:33.171Z,1.50
2022-09-06T03:42:59.750Z,1.30
2022-09-06T03:45:26.291Z,2.05
2022-09-06T03:47:52.831Z,1.48
2022-09-06T03:50:19.420Z,1.55
2022-09-06T03:52:45.979Z,1.65
2022-09-06T03:55:12.520Z,1.33
2022-09-06T03:57:39.063Z,1.33
2022-09-06T04:00:06.192Z,1.20
2022-09-06T04:02:32.839Z,1.10
2022-09-06T04:04:59.426Z,1.52
2022-09-06T04:07:25.996Z,2.10
2022-09-06T04:09:52.532Z,1.67
2022-09-06T04:12:19.083Z,1.13
2022-09-06T04:14:45.747Z,1.17
2022-09-06T04:17:14.202Z,1.30
2022-09-06T04:19:40.813Z,1.45
2022-09-06T04:22:07.467Z,1.58
2022-09-06T04:24:33.995Z,1.85
2022-09-06T04:27:00.546Z,3.10
2022-09-06T04:29:27.079Z,2.22
2022-09-06T04:31:53.744Z,1.60
2022-09-06T04:34:20.385Z,1.38
2022-09-06T04:36:48.422Z,2.25
2022-09-06T04:39:15.256Z,1.00
2022-09-06T04:41:42.535Z,1.35
2022-09-06T04:44:09.198Z,1.13
2022-09-06T04:46:35.817Z,1.10
2022-09-06T04:49:02.379Z,1.67
2022-09-06T04:51:28.925Z,1.50
2022-09-06T04:53:55.494Z,1.23
2022-09-06T04:56:24.214Z,1.83
2022-09-06T04:58:52.222Z,2.65
2022-09-06T05:01:19.006Z,1.00
2022-09-06T05:03:46.080Z,1.38
2022-09-06T05:06:18.492Z,2.90
2022-09-06T05:08:45.106Z,1.15
2022-09-06T05:11:11.744Z,1.15
2022-09-06T05:13:38.819Z,4.50
2022-09-06T05:16:07.417Z,0.85
2022-09-06T05:18:34.415Z,2.53
2022-09-06T05:21:01.427Z,1.60
2022-09-06T05:23:28.159Z,1.20
2022-09-06T05:25:55.000Z,3.30
2022-09-06T05:28:22.235Z,0.80
2022-09-06T05:30:48.827Z,1.77
2022-09-06T05:33:22.046Z,4.05
2022-09-06T05:35:49.476Z,1.08
2022-09-06T05:38:16.111Z,3.67
2022-09-06T05:40:42.744Z,1.35
2022-09-06T05:43:09.349Z,1.45
2022-09-06T05:45:36.028Z,1.77
2022-09-06T05:48:02.914Z,3.25
2022-09-06T05:50:29.453Z,1.80
2022-09-06T05:52:56.011Z,1.45
2022-09-06T05:55:22.543Z,1.88
2022-09-06T05:57:49.086Z,2.85
2022-09-06T06:00:15.902Z,1.58
2022-09-06T06:02:42.672Z,0.73
2022-09-06T06:05:09.354Z,1.23
2022-09-06T06:07:35.950Z,1.65
2022-09-06T06:10:02.561Z,1.73
2022-09-06T06:12:29.129Z,2.03
2022-09-06T06:14:55.676Z,1.77
2022-09-06T06:17:22.222Z,1.48
2022-09-06T06:19:48.772Z,1.70
2022-09-06T06:22:15.328Z,3.05
2022-09-06T06:24:41.905Z,1.13
2022-09-06T06:27:08.455Z,1.05
2022-09-06T06:29:35.059Z,2.65
2022-09-06T06:32:01.802Z,1.33
2022-09-06T06:34:28.367Z,1.13
2022-09-06T06:36:54.995Z,1.10
2022-09-06T06:39:21.530Z,2.33
2022-09-06T06:41:50.616Z,1.60
2022-09-06T06:44:17.213Z,1.35
2022-09-06T06:46:43.790Z,1.23
2022-09-06T06:49:11.093Z,1.30
2022-09-06T06:51:37.833Z,1.20
2022-09-06T06:54:05.346Z,1.33
2022-09-06T06:56:37.535Z,1.63
2022-09-06T06:59:06.788Z,1.92
2022-09-06T07:01:34.430Z,1.23
2022-09-06T07:04:01.636Z,2.15
2022-09-06T07:09:17.295Z,1.48
2022-09-06T07:11:44.184Z,2.88
2022-09-06T07:14:10.740Z,1.02
2022-09-06T07:16:37.333Z,1.33
2022-09-06T07:19:04.033Z,2.50
2022-09-06T07:21:38.363Z,0.98
2022-09-06T07:24:10.097Z,1.83
2022-09-06T07:26:39.394Z,3.03
2022-09-06T07:29:07.220Z,1.10
2022-09-06T07:34:21.946Z,1.05
2022-09-06T07:36:48.682Z,2.30
2022-09-06T07:39:15.343Z,1.40
2022-09-06T07:41:43.323Z,1.92
2022-09-06T07:44:10.187Z,1.92
2022-09-06T07:46:37.194Z,3.05
2022-09-06T07:49:05.299Z,1.23
2022-09-06T07:51:32.404Z,1.27
2022-09-06T07:54:26.445Z,1.38
2022-09-06T07:56:46.481Z,1.35
2022-09-06T07:59:13.198Z,2.13
2022-09-06T08:01:40.355Z,1.40
2022-09-06T08:04:09.234Z,1.40
2022-09-06T08:09:25.015Z,1.95
2022-09-06T08:11:52.604Z,1.48
2022-09-06T08:14:19.783Z,2.65
2022-09-06T08:16:46.402Z,3.60
2022-09-06T08:19:14.515Z,3.60
2022-09-06T08:21:41.582Z,2.15
2022-09-06T08:24:12.268Z,1.65
2022-09-06T08:26:40.413Z,1.35
2022-09-06T08:29:08.670Z,1.65
2022-09-06T08:31:37.934Z,2.63
2022-09-06T08:34:05.040Z,2.05
2022-09-06T08:36:32.606Z,2.22
2022-09-06T08:39:09.031Z,4.40
2022-09-06T08:41:44.729Z,1.50
2022-09-06T08:44:59.231Z,2.38
2022-09-06T08:47:25.987Z,1.40
2022-09-06T08:50:06.451Z,1.50
2022-09-06T08:53:17.175Z,1.58
2022-09-06T08:55:58.059Z,2.28
2022-09-06T08:59:07.156Z,2.47
2022-09-06T09:01:49.641Z,1.70
2022-09-06T09:04:22.140Z,1.42
2022-09-06T09:06:53.509Z,1.75
2022-09-06T09:09:20.254Z,3.40
2022-09-06T09:11:50.639Z,1.42
2022-09-06T09:14:23.869Z,1.65
2022-09-06T09:16:55.002Z,2.22
2022-09-06T09:19:21.584Z,2.63
2022-09-06T09:21:48.249Z,2.28
2022-09-06T09:24:15.826Z,1.90
2022-09-06T09:27:02.376Z,2.97
2022-09-06T09:29:32.120Z,2.30
2022-09-06T09:32:01.043Z,2.22
2022-09-06T09:34:39.639Z,2.03
2022-09-06T09:40:35.045Z,2.58
2022-09-06T09:43:22.116Z,2.28
2022-09-06T09:46:23.497Z,2.25
2022-09-06T09:49:22.183Z,2.95
2022-09-06T09:52:05.952Z,2.03
2022-09-06T09:54:36.979Z,2.53
2022-09-06T09:57:14.065Z,3.00
2022-09-06T09:59:45.470Z,2.70
2022-09-06T10:02:38.970Z,4.10
2022-09-06T10:05:17.407Z,2.50
2022-09-06T10:07:49.060Z,2.30
2022-09-06T10:10:21.571Z,2.25
2022-09-06T10:12:48.342Z,2.90
2022-09-06T10:15:35.850Z,2.50
2022-09-06T10:18:02.820Z,2.50
2022-09-06T10:20:46.062Z,2.47
2022-09-06T10:26:09.724Z,3.35
2022-09-06T10:28:43.975Z,2.42
2022-09-06T10:31:13.615Z,2.75
2022-09-06T10:34:00.691Z,2.70
2022-09-06T10:36:36.782Z,2.72
2022-09-06T10:39:40.727Z,2.60
2022-09-06T10:42:29.251Z,2.60
2022-09-06T10:44:58.715Z,2.60
2022-09-06T10:47:38.488Z,3.22
2022-09-06T10:50:06.068Z,2.50
2022-09-06T10:52:38.281Z,2.53
2022-09-06T10:55:06.604Z,5.25
2022-09-06T11:00:41.804Z,3.22
2022-09-06T11:06:09.710Z,4.07
2022-09-06T11:09:02.320Z,2.83
2022-09-06T11:11:44.348Z,6.07
2022-09-06T11:14:13.956Z,2.88
2022-09-06T11:16:57.596Z,3.42
2022-09-06T11:19:52.130Z,2.50
2022-09-06T11:22:28.181Z,2.90
2022-09-06T11:25:36.239Z,2.85
2022-09-06T11:28:07.739Z,2.28
2022-09-06T11:30:34.683Z,3.55
2022-09-06T11:33:27.303Z,2.80
2022-09-06T11:36:14.394Z,2.47
2022-09-06T11:38:42.589Z,2.40
2022-09-06T11:41:17.665Z,2.30
2022-09-06T11:43:49.560Z,2.00
2022-09-06T11:46:34.466Z,2.42
2022-09-06T11:49:03.747Z,2.78
2022-09-06T11:51:44.298Z,2.55
2022-09-06T11:54:26.877Z,2.80
2022-09-06T11:56:58.602Z,2.22
2022-09-06T11:59:47.597Z,2.30
2022-09-06T12:02:41.662Z,3.28
2022-09-06T12:05:19.001Z,2.10
2022-09-06T12:08:10.477Z,2.97
2022-09-06T12:10:40.040Z,2.40
2022-09-06T12:13:40.503Z,5.00
2022-09-06T12:16:08.421Z,2.75
2022-09-06T12:18:47.150Z,2.88
2022-09-06T12:21:35.092Z,3.05
2022-09-06T12:24:02.058Z,3.78
2022-09-06T12:26:54.466Z,3.17
2022-09-06T12:29:26.396Z,2.10
2022-09-06T12:31:56.505Z,3.85
2022-09-06T12:34:26.508Z,2.60
2022-09-06T12:37:00.152Z,3.28
2022-09-06T12:39:27.033Z,3.35
2022-09-06T12:42:04.710Z,3.05
2022-09-06T12:44:42.852Z,3.30
2022-09-06T12:47:28.989Z,3.30
2022-09-06T12:50:23.931Z,4.03
2022-09-06T12:52:54.147Z,3.95
2022-09-06T12:55:38.456Z,4.47
2022-09-06T12:58:07.724Z,4.35
2022-09-06T13:00:44.183Z,4.30
2022-09-06T13:03:16.434Z,4.60
2022-09-06T13:05:45.175Z,4.40
2022-09-06T13:08:23.172Z,4.57
2022-09-06T13:10:49.790Z,4.65
2022-09-06T13:13:24.705Z,4.07
2022-09-06T13:15:52.795Z,6.13
2022-09-06T13:18:26.943Z,5.00
2022-09-06T13:21:08.926Z,5.07
2022-09-06T13:23:45.636Z,4.57
2022-09-06T13:26:12.218Z,3.70
2022-09-06T13:28:39.054Z,5.38
2022-09-06T13:31:10.436Z,4.50
2022-09-06T13:33:37.917Z,6.07
2022-09-06T13:36:08.630Z,4.22
2022-09-06T13:38:42.549Z,4.75
2022-09-06T13:41:27.479Z,5.32
2022-09-06T13:44:16.069Z,3.65
2022-09-06T13:46:42.924Z,3.97
2022-09-06T13:49:09.557Z,3.80
2022-09-06T13:51:38.577Z,4.18
2022-09-06T13:54:05.350Z,3.65
2022-09-06T13:56:31.975Z,3.58
2022-09-06T13:58:58.556Z,4.70
2022-09-06T14:01:25.331Z,4.20
2022-09-06T14:03:52.674Z,3.95
2022-09-06T14:06:19.258Z,3.65
2022-09-06T14:11:33.114Z,4.00
2022-09-06T14:13:59.698Z,4.57
2022-09-06T14:16:26.262Z,3.83
2022-09-06T14:18:52.967Z,3.78
2022-09-06T14:21:19.518Z,3.92
2022-09-06T14:23:50.889Z,4.00
2022-09-06T14:26:18.783Z,4.40
2022-09-06T14:28:45.556Z,4.28
2022-09-06T14:31:20.975Z,4.38
2022-09-06T14:33:48.520Z,4.10
2022-09-06T14:36:17.566Z,3.83
2022-09-06T14:38:45.472Z,3.88
2022-09-06T14:41:16.088Z,3.70
2022-09-06T14:43:43.989Z,4.00
2022-09-06T14:46:13.705Z,4.25
2022-09-06T14:48:42.517Z,3.83
2022-09-06T14:51:11.187Z,4.18
2022-09-06T14:53:40.900Z,3.70
2022-09-06T14:56:09.224Z,4.03
2022-09-06T14:58:37.396Z,4.82
2022-09-06T15:01:09.231Z,4.20
2022-09-06T15:03:36.262Z,4.80
2022-09-06T15:06:03.920Z,4.65
2022-09-06T15:08:30.508Z,4.50
2022-09-06T15:10:58.307Z,4.45
2022-09-06T15:13:26.838Z,3.83
2022-09-06T15:15:54.994Z,4.50
2022-09-06T15:18:22.224Z,3.75
2022-09-06T15:20:49.551Z,4.50
2022-09-06T15:23:24.645Z,5.03
2022-09-06T15:25:53.932Z,5.43
2022-09-06T15:28:20.718Z,4.30
2022-09-06T15:30:48.088Z,4.38
2022-09-06T15:33:15.001Z,4.43
2022-09-06T15:35:44.645Z,4.95
2022-09-06T15:38:12.074Z,5.15
2022-09-06T15:40:38.848Z,4.68
2022-09-06T15:43:05.453Z,7.20
2022-09-06T15:45:46.034Z,4.35
2022-09-06T15:48:14.396Z,4.45
2022-09-06T15:50:51.380Z,4.72
2022-09-06T15:53:19.242Z,4.50
2022-09-06T15:55:58.119Z,7.80
2022-09-06T15:58:26.641Z,4.95
2022-09-06T16:01:11.177Z,4.90
2022-09-06T16:03:43.210Z,5.50
2022-09-06T16:06:31.411Z,4.53
2022-09-06T16:09:00.865Z,4.07
2022-09-06T16:11:29.954Z,4.35
2022-09-06T16:13:56.709Z,4.43
2022-09-06T16:16:23.663Z,4.88
2022-09-06T16:18:52.083Z,4.93
2022-09-06T16:21:24.226Z,4.90
2022-09-06T16:23:55.833Z,6.10
2022-09-06T16:26:24.427Z,4.95
2022-09-06T16:28:52.494Z,5.18
2022-09-06T16:31:20.797Z,4.47
2022-09-06T16:33:48.715Z,4.80
2022-09-06T16:36:16.185Z,4.32
2022-09-06T16:38:43.026Z,4.28
2022-09-06T16:41:21.786Z,4.30
2022-09-06T16:43:54.979Z,4.13
2022-09-06T16:46:23.659Z,4.80
2022-09-06T16:48:52.019Z,5.25
2022-09-06T16:51:20.542Z,5.65
2022-09-06T16:53:48.255Z,4.32
2022-09-06T16:56:17.808Z,4.95
2022-09-06T16:58:50.326Z,5.50
2022-09-06T17:01:17.197Z,4.20
2022-09-06T17:03:43.979Z,4.60
2022-09-06T17:06:10.761Z,4.97
2022-09-06T17:08:37.567Z,4.32
2022-09-06T17:11:06.462Z,5.57
2022-09-06T17:13:33.397Z,4.85
2022-09-06T17:16:22.324Z,4.35
2022-09-06T17:18:49.673Z,4.45
2022-09-06T17:21:16.242Z,5.65
2022-09-06T17:23:42.821Z,5.95
2022-09-06T17:26:09.387Z,6.07
2022-09-06T17:28:37.567Z,4.40
2022-09-06T17:31:07.180Z,4.70
2022-09-06T17:33:35.052Z,4.10
2022-09-06T17:36:13.448Z,6.47
2022-09-06T17:38:41.521Z,5.45
2022-09-06T17:41:15.889Z,4.28
2022-09-06T17:43:42.756Z,4.15
2022-09-06T17:46:09.368Z,4.65
2022-09-06T17:48:35.956Z,4.63
2022-09-06T17:51:10.198Z,5.28
2022-09-06T17:53:39.759Z,4.20
2022-09-06T17:56:08.944Z,4.47
2022-09-06T17:58:36.615Z,4.68
2022-09-06T18:01:08.872Z,4.97
2022-09-06T18:03:35.535Z,4.63
2022-09-06T18:06:03.921Z,4.80
2022-09-06T18:08:30.750Z,5.03
2022-09-06T18:10:57.390Z,4.47
2022-09-06T18:13:24.004Z,3.70
2022-09-06T18:15:50.546Z,3.58
2022-09-06T18:18:17.996Z,5.28
2022-09-06T18:20:44.536Z,5.05
2022-09-06T18:23:11.066Z,4.38
2022-09-06T18:25:37.621Z,3.70
2022-09-06T18:28:04.179Z,3.58
2022-09-06T18:30:30.722Z,3.60
2022-09-06T18:32:57.263Z,5.43
2022-09-06T18:35:23.802Z,3.72
2022-09-06T18:37:50.340Z,4.20
2022-09-06T18:40:16.959Z,3.40
2022-09-06T18:42:44.574Z,4.35
2022-09-06T18:45:11.392Z,3.90
2022-09-06T18:47:38.953Z,4.05
2022-09-06T18:50:06.776Z,4.13
2022-09-06T18:52:33.322Z,3.80
2022-09-06T18:54:59.898Z,3.65
2022-09-06T18:57:26.435Z,5.00
2022-09-06T18:59:53.013Z,4.88
2022-09-06T19:02:20.460Z,4.03
2022-09-06T19:04:47.820Z,3.88
2022-09-06T19:07:14.389Z,4.15
2022-09-06T19:09:41.468Z,4.13
2022-09-06T19:12:11.338Z,3.92
2022-09-06T19:14:38.209Z,3.70
2022-09-06T19:17:05.106Z,7.65
2022-09-06T19:19:31.686Z,4.18
2022-09-06T19:21:58.456Z,3.80
2022-09-06T19:24:25.574Z,4.85
2022-09-06T19:26:52.825Z,4.97
2022-09-06T19:29:19.868Z,4.13
2022-09-06T19:31:47.429Z,5.15
2022-09-06T19:34:15.365Z,4.22
2022-09-06T19:36:43.101Z,4.30
2022-09-06T19:39:13.194Z,4.40
2022-09-06T19:41:42.903Z,4.40
2022-09-06T19:44:10.919Z,4.45
2022-09-06T19:46:39.419Z,4.80
2022-09-06T19:49:10.443Z,4.18
2022-09-06T19:51:37.238Z,4.43
2022-09-06T19:54:04.914Z,4.95
2022-09-06T19:56:34.165Z,4.57
2022-09-06T19:59:03.410Z,4.60
2022-09-06T20:01:32.500Z,4.38
2022-09-06T20:04:00.627Z,4.63
2022-09-06T20:06:27.364Z,6.45
2022-09-06T20:08:58.615Z,4.40
2022-09-06T20:11:27.793Z,4.53
2022-09-06T20:13:54.379Z,4.95
2022-09-06T20:16:21.891Z,6.43
2022-09-06T20:18:48.907Z,4.57
2022-09-06T20:21:17.585Z,5.68
2022-09-06T20:23:49.311Z,4.78
2022-09-06T20:26:16.572Z,5.45
2022-09-06T20:28:44.050Z,5.18
2022-09-06T20:31:16.436Z,6.38
2022-09-06T20:33:48.711Z,7.07
2022-09-06T20:36:17.522Z,4.47
2022-09-06T20:38:45.564Z,4.55
2022-09-06T20:41:23.597Z,4.20
2022-09-06T20:43:52.411Z,5.63
2022-09-06T20:46:21.822Z,4.35
2022-09-06T20:48:48.657Z,4.72
2022-09-06T20:51:18.971Z,4.30
2022-09-06T20:53:55.982Z,4.07
2022-09-06T20:56:25.128Z,5.30
2022-09-06T20:58:54.058Z,4.45
2022-09-06T21:01:26.455Z,4.32
2022-09-06T21:03:55.672Z,4.80
2022-09-06T21:06:23.827Z,6.00
2022-09-06T21:08:50.721Z,5.28
2022-09-06T21:11:18.080Z,5.95
2022-09-06T21:13:49.294Z,4.28
2022-09-06T21:16:18.350Z,5.03
2022-09-06T21:18:54.904Z,4.95
2022-09-06T21:21:22.309Z,5.70
2022-09-06T21:23:49.447Z,4.30
2022-09-06T21:26:17.062Z,5.22
2022-09-06T21:28:45.129Z,4.13
2022-09-06T21:31:22.130Z,4.38
2022-09-06T21:33:52.567Z,4.70
2022-09-06T21:36:29.806Z,4.18
2022-09-06T21:38:59.157Z,4.80
2022-09-06T21:41:26.497Z,4.25
2022-09-06T21:43:54.754Z,4.18
2022-09-06T21:46:22.601Z,4.90
2022-09-06T21:48:51.156Z,4.88
2022-09-06T21:51:23.045Z,4.20
2022-09-06T21:53:51.274Z,4.70
2022-09-06T21:56:19.583Z,5.07
2022-09-06T21:58:50.579Z,5.05
2022-09-06T22:01:17.177Z,4.35
2022-09-06T22:03:43.758Z,4.30
2022-09-06T22:06:19.243Z,4.78
2022-09-06T22:08:47.090Z,4.22
2022-09-06T22:11:19.941Z,4.43
2022-09-06T22:13:47.653Z,4.50
2022-09-06T22:16:16.778Z,3.97
2022-09-06T22:18:44.832Z,4.25
2022-09-06T22:21:15.275Z,5.30
2022-09-06T22:23:41.859Z,3.97
2022-09-06T22:26:10.906Z,4.05
2022-09-06T22:28:38.439Z,5.00
2022-09-06T22:31:05.948Z,3.65
2022-09-06T22:33:32.847Z,4.28
2022-09-06T22:36:00.363Z,6.03
2022-09-06T22:38:30.671Z,4.03
2022-09-06T22:40:58.272Z,4.47
2022-09-06T22:43:25.687Z,4.03
2022-09-06T22:45:52.380Z,3.67
2022-09-06T22:48:19.210Z,4.28
2022-09-06T22:50:46.952Z,4.65
2022-09-06T22:53:13.535Z,4.50
2022-09-06T22:55:40.160Z,4.00
2022-09-06T22:58:06.771Z,4.38
2022-09-06T23:00:35.978Z,4.75
2022-09-06T23:03:02.837Z,3.80
2022-09-06T23:05:31.261Z,4.22
2022-09-06T23:08:00.129Z,4.35
2022-09-06T23:10:27.416Z,4.07
2022-09-06T23:12:54.583Z,4.45
2022-09-06T23:15:21.729Z,5.78
2022-09-06T23:17:48.395Z,3.88
2022-09-06T23:20:15.196Z,4.15
2022-09-06T23:22:41.987Z,3.65
2022-09-06T23:25:08.859Z,4.20
2022-09-06T23:27:35.506Z,4.72
2022-09-06T23:30:03.484Z,4.50
2022-09-06T23:32:31.935Z,3.75
2022-09-06T23:34:58.523Z,3.88
2022-09-06T23:37:25.067Z,3.53
2022-09-06T23:39:52.508Z,3.72
2022-09-06T23:42:19.332Z,4.05
2022-09-06T23:44:45.878Z,3.88
2022-09-06T23:47:12.419Z,4.80
2022-09-06T23:49:39.127Z,4.03
2022-09-06T23:52:05.773Z,3.15
2022-09-06T23:54:32.348Z,3.75
2022-09-06T23:56:58.892Z,4.35
2022-09-06T23:59:25.430Z,5.00
